Accueil
METAR-TAF:

METAR-TAF

Aéroports :

Aéroport d'Illizi - Takhamalt

Illizi, Algérie

latitude: 26-30N, longitude: 008-25E, altitude: 558 m

Observation

Le bulletin a été fait il y a 53 minutes, à 12:00 UTC
Vent 8 kt de sud/sud-ouest
Température 24°C
Humidité 9%
Pression 1018 hPa
Visibilité 10 km ou plus
pas de nuages en-dessous de 1500 mètres et pas de cumulonimbus.

METAR: DAAP 201200Z 20008KT CAVOK 24/M11 Q1018

Heure: 13:53 (12:53 UTC)

Prévision

Le bulletin a été fait il y a 1 heure et 53 minutes, à 11:00 UTC
Prévision valable du 20 à 12 UTC au 20 à 21 UTC
Vent 8 kt de sud
Visibilité 10 km ou plus
pas de nuages en-dessous de 1500 mètres et pas de cumulonimbus.

TAF: DAAP 201100Z 2012/2021 18008KT CAVOK

Observations et prévisions météorologiques de plus de 4000 aéroports (messages METAR et TAF).

Les stations disponibles sont représentées par des disques jaunes et rouges sur la carte.

Passer la souris dessus pour voir le nom de la station.

Cliquer dessus pour voir les observations et prévisions météorologiques.

Pour changer de carte: cliquez sur les boutons verts avec une croix noire pour zoomer, sur le bouton vert avec un tiret pour effectuer un zoom arrière, ou sur les flèches vertes pour les cartes adjacentes.


METAR-TAF: